createdAt,value
2018-05-18T00:01:58.194Z,11.68
2018-05-18T00:04:33.426Z,11.70
2018-05-18T00:07:08.314Z,11.71
2018-05-18T00:09:43.530Z,11.72
2018-05-18T00:12:19.106Z,11.66
2018-05-18T00:14:54.110Z,11.60
2018-05-18T00:17:29.343Z,11.60
2018-05-18T00:20:03.774Z,11.59
2018-05-18T00:22:39.141Z,11.61
2018-05-18T00:25:14.355Z,11.60
2018-05-18T00:27:49.489Z,11.56
2018-05-18T00:30:26.264Z,11.51
2018-05-18T00:33:01.129Z,11.54
2018-05-18T00:35:35.694Z,11.59
2018-05-18T00:38:10.574Z,11.59
2018-05-18T00:40:45.525Z,11.59
2018-05-18T00:43:20.475Z,11.56
2018-05-18T00:45:55.174Z,11.52
2018-05-18T00:48:30.234Z,11.49
2018-05-18T00:51:05.170Z,11.47
2018-05-18T00:53:40.074Z,11.48
2018-05-18T00:56:16.517Z,11.52
2018-05-18T00:58:51.663Z,11.56
2018-05-18T01:01:26.592Z,11.58
2018-05-18T01:04:01.442Z,11.56
2018-05-18T01:06:36.211Z,11.57
2018-05-18T01:09:11.138Z,11.61
2018-05-18T01:11:46.202Z,11.58
2018-05-18T01:14:21.237Z,11.55
2018-05-18T01:16:55.895Z,11.53
2018-05-18T01:19:31.173Z,11.51
2018-05-18T01:22:06.190Z,11.49
2018-05-18T01:24:40.622Z,11.48
2018-05-18T01:27:16.585Z,11.51
2018-05-18T01:29:51.251Z,11.49
2018-05-18T01:32:26.524Z,11.46
2018-05-18T01:35:01.419Z,11.44
2018-05-18T01:37:36.421Z,11.41
2018-05-18T01:40:11.741Z,11.38
2018-05-18T01:42:46.755Z,11.32
2018-05-18T01:45:21.693Z,11.28
2018-05-18T01:47:56.730Z,11.24
2018-05-18T01:50:31.854Z,11.24
2018-05-18T01:53:06.914Z,11.25
2018-05-18T01:55:42.346Z,11.24
2018-05-18T01:58:16.877Z,11.20
2018-05-18T02:00:52.261Z,11.21
2018-05-18T02:03:27.381Z,11.19
2018-05-18T02:06:02.310Z,11.19
2018-05-18T02:08:37.639Z,11.17
2018-05-18T02:11:12.630Z,11.12
2018-05-18T02:13:47.479Z,11.10
2018-05-18T02:16:23.321Z,11.09
2018-05-18T02:18:59.273Z,11.09
2018-05-18T02:21:34.349Z,11.13
2018-05-18T02:24:08.429Z,11.20
2018-05-18T02:26:43.488Z,11.21
2018-05-18T02:29:18.638Z,11.19
2018-05-18T02:31:53.680Z,11.13
2018-05-18T02:34:28.926Z,11.12
2018-05-18T02:37:03.866Z,11.06
2018-05-18T02:39:39.175Z,11.00
2018-05-18T02:42:14.367Z,10.92
2018-05-18T02:44:49.565Z,10.87
2018-05-18T02:47:24.646Z,10.86
2018-05-18T02:49:59.527Z,10.90
2018-05-18T02:52:34.419Z,10.93
2018-05-18T02:55:09.420Z,10.98
2018-05-18T02:57:44.410Z,10.96
2018-05-18T03:00:19.339Z,10.97
2018-05-18T03:02:54.479Z,10.97
2018-05-18T03:05:29.698Z,10.99
2018-05-18T03:08:04.679Z,10.97
2018-05-18T03:10:39.650Z,10.94
2018-05-18T03:13:24.042Z,10.90
2018-05-18T03:15:58.545Z,10.92
2018-05-18T03:18:33.551Z,10.95
2018-05-18T03:21:08.614Z,10.98
2018-05-18T03:23:43.434Z,11.01
2018-05-18T03:26:18.201Z,11.02
2018-05-18T03:28:52.650Z,11.00
2018-05-18T03:31:28.085Z,10.99
2018-05-18T03:34:03.687Z,10.98
2018-05-18T03:36:38.529Z,10.98
2018-05-18T03:39:13.694Z,10.95
2018-05-18T03:41:48.194Z,10.93
2018-05-18T03:44:23.446Z,10.93
2018-05-18T03:46:58.485Z,10.92
2018-05-18T03:49:33.458Z,10.88
2018-05-18T03:52:08.051Z,10.86
2018-05-18T03:54:42.994Z,10.82
2018-05-18T03:57:18.018Z,10.81
2018-05-18T03:59:52.490Z,10.83
2018-05-18T04:02:38.155Z,10.86
2018-05-18T04:05:24.118Z,10.88
2018-05-18T04:08:09.678Z,10.87
2018-05-18T04:10:44.578Z,10.82
2018-05-18T04:13:19.489Z,10.84
2018-05-18T04:15:54.126Z,10.88
2018-05-18T04:18:29.127Z,10.94
2018-05-18T04:21:03.738Z,10.99
2018-05-18T04:23:38.440Z,11.04
2018-05-18T04:26:13.554Z,11.09
2018-05-18T04:28:48.025Z,11.10
2018-05-18T04:31:22.846Z,11.07
2018-05-18T04:33:57.581Z,11.03
2018-05-18T04:36:32.958Z,11.07
2018-05-18T04:39:08.151Z,11.14
2018-05-18T04:41:43.046Z,11.19
2018-05-18T04:44:17.986Z,11.24
2018-05-18T04:46:52.659Z,11.27
2018-05-18T04:49:27.765Z,11.26
2018-05-18T04:52:02.706Z,11.26
2018-05-18T04:54:37.607Z,11.28
2018-05-18T04:57:12.211Z,11.31
2018-05-18T04:59:47.239Z,11.31
2018-05-18T05:02:21.976Z,11.34
2018-05-18T05:04:56.946Z,11.34
2018-05-18T05:07:31.641Z,11.36
2018-05-18T05:10:06.730Z,11.39
2018-05-18T05:12:41.277Z,11.42
2018-05-18T05:15:17.082Z,11.48
2018-05-18T05:17:52.201Z,11.52
2018-05-18T05:20:27.049Z,11.51
2018-05-18T05:23:02.076Z,11.53
2018-05-18T05:25:37.084Z,11.51
2018-05-18T05:28:11.710Z,11.47
2018-05-18T05:30:46.809Z,11.46
2018-05-18T05:33:21.753Z,11.45
2018-05-18T05:35:56.338Z,11.43
2018-05-18T05:38:31.358Z,11.46
2018-05-18T05:41:05.911Z,11.48
2018-05-18T05:43:40.846Z,11.46
2018-05-18T05:46:15.665Z,11.47
2018-05-18T05:48:50.188Z,11.50
2018-05-18T05:51:25.084Z,11.55
2018-05-18T05:54:00.015Z,11.65
2018-05-18T05:56:34.841Z,11.74
2018-05-18T05:59:09.986Z,11.82
2018-05-18T06:01:44.885Z,11.88
2018-05-18T06:04:20.078Z,11.93
2018-05-18T06:06:54.877Z,11.92
2018-05-18T06:09:30.037Z,11.85
2018-05-18T06:12:04.550Z,11.87
2018-05-18T06:14:39.720Z,11.90
2018-05-18T06:17:14.365Z,11.83
2018-05-18T06:19:49.253Z,11.82
2018-05-18T06:22:24.312Z,11.84
2018-05-18T06:24:59.366Z,11.87
2018-05-18T06:27:34.367Z,11.91
2018-05-18T06:30:09.833Z,11.95
2018-05-18T06:32:44.750Z,11.95
2018-05-18T06:35:19.389Z,12.00
2018-05-18T06:37:54.161Z,12.07
2018-05-18T06:40:29.145Z,12.18
2018-05-18T06:43:03.769Z,12.25
2018-05-18T06:45:38.938Z,12.29
2018-05-18T06:48:13.921Z,12.34
2018-05-18T06:50:49.043Z,12.36
2018-05-18T06:53:23.443Z,12.41
2018-05-18T06:55:58.376Z,12.46
2018-05-18T06:58:33.414Z,12.49
2018-05-18T07:01:08.446Z,12.59
2018-05-18T07:03:43.948Z,12.69
2018-05-18T07:06:19.212Z,12.77
2018-05-18T07:08:53.970Z,12.87
2018-05-18T07:11:29.255Z,12.94
2018-05-18T07:14:04.117Z,12.99
2018-05-18T07:16:39.132Z,13.00
2018-05-18T07:19:14.114Z,13.00
2018-05-18T07:21:49.022Z,12.83
2018-05-18T07:24:24.255Z,12.72
2018-05-18T07:26:59.299Z,12.70
2018-05-18T07:29:35.190Z,12.72
2018-05-18T07:32:10.539Z,12.79
2018-05-18T07:34:45.154Z,12.87
2018-05-18T07:37:20.446Z,13.00
2018-05-18T07:39:55.226Z,13.10
2018-05-18T07:42:30.394Z,13.15
2018-05-18T07:45:04.847Z,13.10
2018-05-18T07:47:40.130Z,12.96
2018-05-18T07:50:15.298Z,12.88
2018-05-18T07:52:50.703Z,12.93
2018-05-18T07:55:25.434Z,12.96
2018-05-18T07:58:00.460Z,12.93
2018-05-18T08:00:35.491Z,12.99
2018-05-18T08:03:10.322Z,13.09
2018-05-18T08:05:45.394Z,13.12
2018-05-18T08:08:20.737Z,13.12
2018-05-18T08:10:55.250Z,13.15
2018-05-18T08:13:30.362Z,13.14
2018-05-18T08:16:05.062Z,13.12
2018-05-18T08:18:40.239Z,13.19
2018-05-18T08:21:15.317Z,13.35
2018-05-18T08:23:50.494Z,13.42
2018-05-18T08:26:25.397Z,13.35
2018-05-18T08:29:11.596Z,13.29
2018-05-18T08:31:46.255Z,13.37
2018-05-18T08:34:21.210Z,13.53
2018-05-18T08:36:56.341Z,13.56
2018-05-18T08:39:31.482Z,13.59
2018-05-18T08:42:06.026Z,13.73
2018-05-18T08:44:40.602Z,13.89
2018-05-18T08:47:16.090Z,14.05
2018-05-18T08:49:51.268Z,14.12
2018-05-18T08:52:26.714Z,14.20
2018-05-18T08:55:01.408Z,14.27
2018-05-18T08:57:36.375Z,14.35
2018-05-18T09:00:11.626Z,14.58
2018-05-18T09:02:46.523Z,14.49
2018-05-18T09:05:21.622Z,14.31
2018-05-18T09:07:56.327Z,14.35
2018-05-18T09:10:31.523Z,14.34
2018-05-18T09:13:06.292Z,14.30
2018-05-18T09:15:41.267Z,14.21
2018-05-18T09:18:17.631Z,14.25
2018-05-18T09:20:52.426Z,14.17
2018-05-18T09:23:27.423Z,13.99
2018-05-18T09:26:02.746Z,14.03
2018-05-18T09:28:37.913Z,14.39
2018-05-18T09:31:13.228Z,14.80
2018-05-18T09:33:48.781Z,14.96
2018-05-18T09:36:23.680Z,14.93
2018-05-18T09:38:58.801Z,14.88
2018-05-18T09:41:33.708Z,14.90
2018-05-18T09:44:08.549Z,15.13
2018-05-18T09:46:43.107Z,15.40
2018-05-18T09:49:18.370Z,15.50
2018-05-18T09:51:53.266Z,15.82
2018-05-18T09:54:28.014Z,16.02
2018-05-18T09:57:02.541Z,16.13
2018-05-18T09:59:37.489Z,16.21
2018-05-18T10:02:12.490Z,16.17
2018-05-18T10:04:47.451Z,16.39
2018-05-18T10:07:22.585Z,16.62
2018-05-18T10:09:57.466Z,17.01
2018-05-18T10:12:32.767Z,17.06
2018-05-18T10:15:07.183Z,16.56
2018-05-18T10:17:42.040Z,16.28
2018-05-18T10:20:17.530Z,16.39
2018-05-18T10:22:52.426Z,16.57
2018-05-18T10:25:26.934Z,16.69
2018-05-18T10:28:02.507Z,16.82
2018-05-18T10:30:37.013Z,17.09
2018-05-18T10:33:11.842Z,17.21
2018-05-18T10:35:46.937Z,17.44
2018-05-18T10:38:21.792Z,17.50
2018-05-18T10:40:56.616Z,17.70
2018-05-18T10:43:31.648Z,17.73
2018-05-18T10:46:06.203Z,17.76
2018-05-18T10:48:41.603Z,18.07
2018-05-18T10:51:17.071Z,18.46
2018-05-18T10:53:52.018Z,18.50
2018-05-18T10:56:27.591Z,18.09
2018-05-18T10:59:02.426Z,17.71
2018-05-18T11:01:37.587Z,17.61
2018-05-18T11:04:12.575Z,17.96
2018-05-18T11:06:47.667Z,18.48
2018-05-18T11:09:23.098Z,18.93
2018-05-18T11:11:58.109Z,19.08
2018-05-18T11:14:33.607Z,19.06
2018-05-18T11:17:08.671Z,18.95
2018-05-18T11:19:43.794Z,18.67
2018-05-18T11:22:18.610Z,18.22
2018-05-18T11:24:53.861Z,18.03
2018-05-18T11:27:29.194Z,18.25
2018-05-18T11:30:03.769Z,18.64
2018-05-18T11:32:39.106Z,18.87
2018-05-18T11:35:14.214Z,19.13
2018-05-18T11:37:49.264Z,19.38
2018-05-18T11:40:24.202Z,19.55
2018-05-18T11:42:59.653Z,19.68
2018-05-18T11:45:34.264Z,19.77
2018-05-18T11:48:08.836Z,19.88
2018-05-18T11:50:43.714Z,19.89
2018-05-18T11:53:18.745Z,19.74
2018-05-18T11:55:53.681Z,19.63
2018-05-18T11:58:28.802Z,19.82
2018-05-18T12:01:03.874Z,20.21
2018-05-18T12:03:38.793Z,20.34
2018-05-18T12:06:13.863Z,20.31
2018-05-18T12:08:48.682Z,20.23
2018-05-18T12:11:23.193Z,20.02
2018-05-18T12:13:58.167Z,19.84
2018-05-18T12:16:33.330Z,19.83
2018-05-18T12:19:08.130Z,20.08
2018-05-18T12:21:43.633Z,20.56
2018-05-18T12:24:19.070Z,21.01
2018-05-18T12:26:54.749Z,21.07
2018-05-18T12:29:30.035Z,21.08
2018-05-18T12:32:04.670Z,21.05
2018-05-18T12:34:39.841Z,21.13
2018-05-18T12:37:14.778Z,21.25
2018-05-18T12:39:49.825Z,21.16
2018-05-18T12:42:24.829Z,21.00
2018-05-18T12:44:59.942Z,21.00
2018-05-18T12:47:35.069Z,20.74
2018-05-18T12:50:09.986Z,20.72
2018-05-18T12:52:45.195Z,20.84
2018-05-18T12:55:20.215Z,20.94
2018-05-18T12:57:55.030Z,20.95
2018-05-18T13:00:30.397Z,21.00
2018-05-18T13:03:05.974Z,21.09
2018-05-18T13:05:40.577Z,21.35
2018-05-18T13:08:16.106Z,21.56
2018-05-18T13:10:50.954Z,21.54
2018-05-18T13:13:26.334Z,21.51
2018-05-18T13:16:01.427Z,21.36
2018-05-18T13:18:36.330Z,21.18
2018-05-18T13:21:11.530Z,21.20
2018-05-18T13:23:46.878Z,21.25
2018-05-18T13:26:21.893Z,21.07
2018-05-18T13:28:57.319Z,21.20
2018-05-18T13:31:32.578Z,21.54
2018-05-18T13:34:08.012Z,21.72
2018-05-18T13:36:42.982Z,21.62
2018-05-18T13:39:18.290Z,21.46
2018-05-18T13:41:52.902Z,21.45
2018-05-18T13:44:28.187Z,21.52
2018-05-18T13:47:03.138Z,21.59
2018-05-18T13:49:37.742Z,21.72
2018-05-18T13:52:12.386Z,21.73
2018-05-18T13:54:47.047Z,21.45
2018-05-18T13:57:22.265Z,21.15
2018-05-18T13:59:57.258Z,20.96
2018-05-18T14:02:32.479Z,21.24
2018-05-18T14:05:07.174Z,21.58
2018-05-18T14:07:42.167Z,21.59
2018-05-18T14:10:18.442Z,21.66
2018-05-18T14:12:53.537Z,21.61
2018-05-18T14:15:28.491Z,21.49
2018-05-18T14:18:03.522Z,21.49
2018-05-18T14:20:38.950Z,21.53
2018-05-18T14:23:13.601Z,21.74
2018-05-18T14:25:49.115Z,21.76
2018-05-18T14:28:24.395Z,21.62
2018-05-18T14:30:59.423Z,21.63
2018-05-18T14:33:35.006Z,21.61
2018-05-18T14:36:10.187Z,21.57
2018-05-18T14:38:45.549Z,21.61
2018-05-18T14:41:20.534Z,21.71
2018-05-18T14:43:55.660Z,21.66
2018-05-18T14:46:31.079Z,21.65
2018-05-18T14:49:05.841Z,21.84
2018-05-18T14:51:40.420Z,22.00
2018-05-18T14:54:15.218Z,22.08
2018-05-18T14:56:50.841Z,22.09
2018-05-18T14:59:26.406Z,22.03
2018-05-18T15:02:01.166Z,22.11
2018-05-18T15:04:36.030Z,22.16
2018-05-18T15:07:11.313Z,22.23
2018-05-18T15:09:46.350Z,22.26
2018-05-18T15:12:21.547Z,22.20
2018-05-18T15:14:56.381Z,22.20
2018-05-18T15:17:31.450Z,22.31
2018-05-18T15:20:05.879Z,22.40
2018-05-18T15:22:41.194Z,22.45
2018-05-18T15:25:16.368Z,22.24
2018-05-18T15:27:51.349Z,21.76
2018-05-18T15:30:26.622Z,21.61
2018-05-18T15:33:01.371Z,21.58
2018-05-18T15:35:36.363Z,21.43
2018-05-18T15:38:11.255Z,21.52
2018-05-18T15:40:46.339Z,21.74
2018-05-18T15:43:21.067Z,21.88
2018-05-18T15:45:56.297Z,21.89
2018-05-18T15:48:31.563Z,21.75
2018-05-18T15:51:06.110Z,21.66
2018-05-18T15:53:40.686Z,21.65
2018-05-18T15:56:15.306Z,21.63
2018-05-18T15:58:50.383Z,21.58
2018-05-18T16:01:25.746Z,21.48
2018-05-18T16:04:00.523Z,21.31
2018-05-18T16:06:35.422Z,21.18
2018-05-18T16:09:10.410Z,20.97
2018-05-18T16:11:45.206Z,20.74
2018-05-18T16:14:19.940Z,20.70
2018-05-18T16:16:55.343Z,20.63
2018-05-18T16:19:29.898Z,20.62
2018-05-18T16:22:04.735Z,20.72
2018-05-18T16:24:39.451Z,20.74
2018-05-18T16:27:14.476Z,20.78
2018-05-18T16:29:49.159Z,20.72
2018-05-18T16:32:24.835Z,20.72
2018-05-18T16:34:59.743Z,20.55
2018-05-18T16:37:35.257Z,20.40
2018-05-18T16:40:10.843Z,20.24
2018-05-18T16:42:45.804Z,20.02
2018-05-18T16:45:20.915Z,19.80
2018-05-18T16:47:55.862Z,19.72
2018-05-18T16:50:30.926Z,19.73
2018-05-18T16:53:05.654Z,19.80
2018-05-18T16:55:40.105Z,19.87
2018-05-18T16:58:14.954Z,19.92
2018-05-18T17:00:49.855Z,19.78
2018-05-18T17:03:25.051Z,19.57
2018-05-18T17:06:00.014Z,19.43
2018-05-18T17:08:35.958Z,19.25
2018-05-18T17:11:10.705Z,19.07
2018-05-18T17:13:45.765Z,19.08
2018-05-18T17:16:21.346Z,19.24
2018-05-18T17:18:56.540Z,19.28
2018-05-18T17:21:31.981Z,19.17
2018-05-18T17:24:06.391Z,19.03
2018-05-18T17:26:40.825Z,18.95
2018-05-18T17:29:16.074Z,18.90
2018-05-18T17:31:51.049Z,18.85
2018-05-18T17:34:26.550Z,18.83
2018-05-18T17:37:01.403Z,18.77
2018-05-18T17:39:36.934Z,18.79
2018-05-18T17:42:11.971Z,18.82
2018-05-18T17:44:46.737Z,18.85
2018-05-18T17:47:21.930Z,18.90
2018-05-18T17:49:57.404Z,18.93
2018-05-18T17:52:33.059Z,18.91
2018-05-18T17:55:07.607Z,18.95
2018-05-18T17:57:42.918Z,18.89
2018-05-18T18:00:18.859Z,18.74
2018-05-18T18:02:53.979Z,18.59
2018-05-18T18:05:28.738Z,18.49
2018-05-18T18:08:03.902Z,18.42
2018-05-18T18:10:39.235Z,18.34
2018-05-18T18:13:14.550Z,18.29
2018-05-18T18:15:49.390Z,18.22
2018-05-18T18:18:24.418Z,18.22
2018-05-18T18:20:59.450Z,18.25
2018-05-18T18:23:34.802Z,18.29
2018-05-18T18:26:09.851Z,18.31
2018-05-18T18:28:44.297Z,18.30
2018-05-18T18:31:20.935Z,18.28
2018-05-18T18:33:55.551Z,18.24
2018-05-18T18:36:30.799Z,18.17
2018-05-18T18:39:06.484Z,18.07
2018-05-18T18:41:41.530Z,17.96
2018-05-18T18:44:17.139Z,17.86
2018-05-18T18:46:51.976Z,17.75
2018-05-18T18:49:26.898Z,17.62
2018-05-18T18:52:01.754Z,17.48
2018-05-18T18:54:36.419Z,17.38
2018-05-18T18:57:11.390Z,17.37
2018-05-18T18:59:46.980Z,17.33
2018-05-18T19:02:22.038Z,17.24
2018-05-18T19:04:57.022Z,17.18
2018-05-18T19:07:32.181Z,17.16
2018-05-18T19:10:07.175Z,17.11
2018-05-18T19:12:42.426Z,17.06
2018-05-18T19:15:17.122Z,16.99
2018-05-18T19:17:52.491Z,16.93
2018-05-18T19:20:28.042Z,16.83
2018-05-18T19:23:03.042Z,16.74
2018-05-18T19:25:38.262Z,16.69
2018-05-18T19:28:13.202Z,16.63
2018-05-18T19:30:48.360Z,16.59
2018-05-18T19:33:23.461Z,16.53
2018-05-18T19:36:00.309Z,16.45
2018-05-18T19:38:35.214Z,16.33
2018-05-18T19:41:10.178Z,16.24
2018-05-18T19:43:45.402Z,16.17
2018-05-18T19:46:20.210Z,16.08
2018-05-18T19:48:55.327Z,15.96
2018-05-18T19:51:30.647Z,15.85
2018-05-18T19:54:05.340Z,15.73
2018-05-18T19:56:40.705Z,15.63
2018-05-18T19:59:16.110Z,15.54
2018-05-18T20:01:51.106Z,15.46
2018-05-18T20:04:26.394Z,15.39
2018-05-18T20:07:00.938Z,15.30
2018-05-18T20:09:36.254Z,15.24
2018-05-18T20:12:11.263Z,15.18
2018-05-18T20:14:46.271Z,15.12
2018-05-18T20:17:21.255Z,15.05
2018-05-18T20:19:56.150Z,14.97
2018-05-18T20:22:31.443Z,14.89
2018-05-18T20:25:06.564Z,14.80
2018-05-18T20:27:41.753Z,14.70
2018-05-18T20:30:17.171Z,14.64
2018-05-18T20:32:52.095Z,14.58
2018-05-18T20:35:27.525Z,14.51
2018-05-18T20:38:04.202Z,14.44
2018-05-18T20:40:39.703Z,14.35
2018-05-18T20:43:15.294Z,14.29
2018-05-18T20:45:50.003Z,14.24
2018-05-18T20:48:26.226Z,14.20
2018-05-18T20:51:01.754Z,14.17
2018-05-18T20:53:37.750Z,14.13
2018-05-18T20:56:13.480Z,14.09
2018-05-18T20:58:49.766Z,14.05
2018-05-18T21:01:24.847Z,14.00
2018-05-18T21:03:59.932Z,13.99
2018-05-18T21:06:35.508Z,14.39
2018-05-18T21:09:14.270Z,14.97
2018-05-18T21:11:50.089Z,15.25
2018-05-18T21:14:26.142Z,15.20
2018-05-18T21:17:02.544Z,15.05
2018-05-18T21:19:37.910Z,14.90
2018-05-18T21:22:14.568Z,14.73
2018-05-18T21:24:49.594Z,14.56
2018-05-18T21:27:24.565Z,14.39
2018-05-18T21:29:59.366Z,14.28
2018-05-18T21:32:35.618Z,14.18
2018-05-18T21:35:10.514Z,14.12
2018-05-18T21:37:45.401Z,14.06
2018-05-18T21:40:21.002Z,14.00
2018-05-18T21:42:55.694Z,13.93
2018-05-18T21:45:30.937Z,13.88
2018-05-18T21:48:05.583Z,13.84
2018-05-18T21:50:40.902Z,13.79
2018-05-18T21:53:15.942Z,13.73
2018-05-18T21:55:51.362Z,13.68
2018-05-18T21:58:26.710Z,13.62
2018-05-18T22:01:01.758Z,13.55
2018-05-18T22:03:37.558Z,13.47
2018-05-18T22:06:12.562Z,13.43
2018-05-18T22:08:47.618Z,13.39
2018-05-18T22:11:22.500Z,13.37
2018-05-18T22:13:57.762Z,13.35
2018-05-18T22:16:33.395Z,13.29
2018-05-18T22:19:08.358Z,13.19
2018-05-18T22:21:43.591Z,13.14
2018-05-18T22:24:19.854Z,13.09
2018-05-18T22:26:54.668Z,13.02
2018-05-18T22:29:29.978Z,12.91
2018-05-18T22:32:04.756Z,12.76
2018-05-18T22:34:39.590Z,12.61
2018-05-18T22:37:14.939Z,12.46
2018-05-18T22:39:49.925Z,12.32
2018-05-18T22:42:25.059Z,12.22
2018-05-18T22:44:59.821Z,12.15
2018-05-18T22:47:34.939Z,12.12
2018-05-18T22:50:10.546Z,12.11
2018-05-18T22:52:45.570Z,12.13
2018-05-18T22:55:20.958Z,12.22
2018-05-18T22:57:56.579Z,12.33
2018-05-18T23:00:31.974Z,12.40
2018-05-18T23:03:06.718Z,12.40
2018-05-18T23:05:41.702Z,12.36
2018-05-18T23:08:16.562Z,12.26
2018-05-18T23:10:51.127Z,12.16
2018-05-18T23:13:26.414Z,12.08
2018-05-18T23:16:01.590Z,12.00
2018-05-18T23:18:36.882Z,11.92
2018-05-18T23:21:12.270Z,11.88
2018-05-18T23:23:47.326Z,11.88
2018-05-18T23:26:22.662Z,11.83
2018-05-18T23:28:57.679Z,11.76
2018-05-18T23:31:32.881Z,11.70
2018-05-18T23:34:07.259Z,11.62
2018-05-18T23:36:42.502Z,11.55
2018-05-18T23:39:17.223Z,11.48
2018-05-18T23:41:52.269Z,11.41
2018-05-18T23:44:27.206Z,11.32
2018-05-18T23:47:01.663Z,11.23
2018-05-18T23:49:36.783Z,11.15
2018-05-18T23:52:11.761Z,11.10
2018-05-18T23:54:47.979Z,11.05
2018-05-18T23:57:23.089Z,10.99
2018-05-18T23:59:57.874Z,10.91
